Time;durP1;ratioP1;P1;durP2;ratioP2;P2;SDS_P1;SDS_P2;PMS_P1;PMS_P2;Temp;Humidity;BMP_temperature;BMP_pressure;BME280_temperature;BME280_humidity;BME280_pressure;Samples;Min_cycle;Max_cycle;Signal;HPM_P1;HPM_P2
2024/01/08 00:00:52;;;;;;;30.20;15.83;;;;;;;-141.97;100.00;46010.63;5093539;28;20152;-86
2024/01/08 00:03:17;;;;;;;27.27;15.37;;;;;;;-141.97;100.00;45985.63;5093543;28;20164;-85
2024/01/08 00:05:43;;;;;;;28.37;15.90;;;;;;;-141.97;100.00;45937.59;5093519;28;20211;-85
2024/01/08 00:08:09;;;;;;;28.40;15.73;;;;;;;-141.97;100.00;46327.63;5092603;28;20541;-86
2024/01/08 00:10:37;;;;;;;28.47;15.47;;;;;;;-141.97;100.00;46550.50;5093863;28;20169;-86
2024/01/08 00:13:03;;;;;;;26.50;15.37;;;;;;;-141.97;100.00;45868.44;5094004;28;20163;-85
2024/01/08 00:15:28;;;;;;;32.73;16.50;;;;;;;-141.97;100.00;46106.66;5092982;28;20247;-86
2024/01/08 00:17:54;;;;;;;27.90;15.00;;;;;;;-141.97;100.00;46377.56;5091406;28;20696;-86
2024/01/08 00:20:19;;;;;;;30.50;15.33;;;;;;;-141.97;100.00;46377.56;5092765;28;20281;-85
2024/01/08 00:22:45;;;;;;;29.50;15.97;;;;;;;-141.97;100.00;45856.91;5091162;28;20194;-85
2024/01/08 00:25:10;;;;;;;34.83;15.63;;;;;;;-141.97;100.00;46189.28;5092891;28;20167;-85
2024/01/08 00:27:36;;;;;;;32.23;16.70;;;;;;;-141.97;100.00;46416.00;5092422;28;20270;-85
2024/01/08 00:30:02;;;;;;;30.03;15.40;;;;;;;-141.97;100.00;45878.06;5092730;28;20164;-86
2024/01/08 00:32:27;;;;;;;29.57;15.93;;;;;;;-141.97;100.00;46020.22;5091265;28;20769;-85
2024/01/08 00:34:53;;;;;;;31.13;15.90;;;;;;;-141.97;100.00;46125.88;5091051;28;20164;-86
2024/01/08 00:37:18;;;;;;;31.47;15.77;;;;;;;-141.97;100.00;46408.31;5092279;28;20191;-86
2024/01/08 00:39:44;;;;;;;28.50;14.57;;;;;;;-141.97;100.00;46544.75;5090944;28;20172;-86
2024/01/08 00:42:09;;;;;;;28.33;13.83;;;;;;;-141.97;100.00;46093.22;5090986;28;20227;-85
2024/01/08 00:44:35;;;;;;;24.77;13.67;;;;;;;-141.97;100.00;46031.75;5090679;28;20413;-86
2024/01/08 00:47:00;;;;;;;25.63;14.13;;;;;;;-141.97;100.00;45939.53;5090880;28;20188;-86
2024/01/08 00:49:26;;;;;;;25.90;14.30;;;;;;;-141.97;100.00;46446.75;5090699;28;20274;-86
2024/01/08 00:51:51;;;;;;;28.47;13.83;;;;;;;-141.97;100.00;46047.13;5091948;28;20612;-85
2024/01/08 00:54:16;;;;;;;25.20;13.90;;;;;;;-141.97;100.00;45989.47;5092031;28;20251;-85
2024/01/08 00:56:42;;;;;;;23.97;14.07;;;;;;;-141.97;100.00;46150.84;5089895;28;20242;-84
2024/01/08 00:59:07;;;;;;;28.93;14.13;;;;;;;-141.97;100.00;46020.22;5092431;28;20599;-85
2024/01/08 01:01:32;;;;;;;30.17;14.90;;;;;;;-141.97;100.00;46154.69;5090575;28;20635;-85
2024/01/08 01:03:59;;;;;;;28.20;14.97;;;;;;;-141.97;100.00;46638.91;5090354;28;20468;-85
2024/01/08 01:06:24;;;;;;;28.60;14.93;;;;;;;-141.97;100.00;45931.84;5091728;28;20681;-85
2024/01/08 01:08:50;;;;;;;30.70;14.03;;;;;;;-141.97;100.00;46635.06;5091581;28;20165;-86
2024/01/08 01:11:16;;;;;;;27.03;14.90;;;;;;;-141.97;100.00;46556.28;5091252;28;20164;-85
2024/01/08 01:13:41;;;;;;;25.83;14.20;;;;;;;-141.97;100.00;46635.06;5091689;28;20339;-85
2024/01/08 01:16:07;;;;;;;27.30;14.67;;;;;;;-141.97;100.00;46020.22;5091756;28;20157;-86
2024/01/08 01:18:32;;;;;;;26.30;13.80;;;;;;;-141.97;100.00;46519.75;5091090;28;20259;-86
2024/01/08 01:20:58;;;;;;;26.20;13.10;;;;;;;-141.97;100.00;46325.69;5090794;28;20274;-85
2024/01/08 01:23:24;;;;;;;25.87;13.70;;;;;;;-141.97;100.00;46147.03;5092088;28;20168;-85
2024/01/08 01:25:49;;;;;;;27.23;14.53;;;;;;;-141.97;100.00;46049.03;5090239;28;20196;-85
2024/01/08 01:28:15;;;;;;;26.63;14.20;;;;;;;-141.97;100.00;45989.47;5091891;28;20489;-85
2024/01/08 01:30:40;;;;;;;28.57;14.43;;;;;;;-141.97;100.00;46323.78;5091727;28;20269;-87
2024/01/08 01:33:05;;;;;;;29.10;15.87;;;;;;;-141.97;100.00;46600.47;5091991;28;20178;-85
2024/01/08 01:35:31;;;;;;;28.10;15.53;;;;;;;-141.97;100.00;45922.25;5090286;28;20600;-85
2024/01/08 01:37:58;;;;;;;30.20;16.10;;;;;;;-141.97;100.00;46512.06;5091575;28;20223;-85
2024/01/08 01:40:25;;;;;;;32.00;16.97;;;;;;;-141.97;100.00;46018.28;5091281;28;20675;-85
2024/01/08 01:42:54;;;;;;;32.07;17.20;;;;;;;-141.97;100.00;46577.41;5091376;28;20616;-86
2024/01/08 01:45:23;;;;;;;31.17;17.33;;;;;;;-141.97;100.00;46571.66;5089518;28;20586;-85
2024/01/08 01:47:50;;;;;;;31.83;16.80;;;;;;;-141.97;100.00;46143.19;5089944;28;20572;-85
2024/01/08 01:50:15;;;;;;;30.83;16.77;;;;;;;-141.97;100.00;46112.44;5089969;28;20642;-85
2024/01/08 01:52:42;;;;;;;36.07;17.60;;;;;;;-141.97;100.00;46120.13;5091960;28;20254;-87
2024/01/08 01:55:10;;;;;;;32.47;16.40;;;;;;;-141.97;100.00;46081.69;5090365;28;20541;-85
2024/01/08 01:57:36;;;;;;;28.60;16.13;;;;;;;-141.97;100.00;46196.97;5089979;28;20160;-86
2024/01/08 02:00:02;;;;;;;34.43;16.57;;;;;;;-141.97;100.00;46467.88;5089759;28;20189;-84
2024/01/08 02:02:28;;;;;;;30.47;16.00;;;;;;;-141.97;100.00;46475.56;5090225;28;20540;-85
2024/01/08 02:04:57;;;;;;;30.30;15.93;;;;;;;-141.97;100.00;46327.63;5091320;28;20262;-85
2024/01/08 02:07:23;;;;;;;31.20;15.70;;;;;;;-141.97;100.00;46162.38;5107499;28;20210;-86
2024/01/08 02:09:50;;;;;;;28.53;15.00;;;;;;;-141.97;100.00;46089.38;5114590;28;20164;-85
2024/01/08 02:12:17;;;;;;;28.33;16.10;;;;;;;-141.97;100.00;46191.22;5097144;28;20190;-85
2024/01/08 02:14:44;;;;;;;31.97;16.23;;;;;;;-141.97;100.00;46454.44;5096398;28;20191;-85
2024/01/08 02:17:09;;;;;;;31.00;15.67;;;;;;;-141.97;100.00;46565.88;5093990;28;20503;-84
2024/01/08 02:19:35;;;;;;;34.70;16.50;;;;;;;-141.97;100.00;46350.69;5091892;28;20183;-84
2024/01/08 02:22:00;;;;;;;27.93;15.23;;;;;;;-141.97;100.00;46577.41;5091718;28;20171;-85
2024/01/08 02:24:28;;;;;;;31.20;15.57;;;;;;;-141.97;100.00;46220.03;5090042;28;20262;-85
2024/01/08 02:26:54;;;;;;;28.30;15.53;;;;;;;-141.97;100.00;46581.25;5089805;28;20191;-83
2024/01/08 02:29:21;;;;;;;29.27;14.43;;;;;;;-141.97;100.00;46089.38;5090602;28;20190;-84
2024/01/08 02:31:47;;;;;;;26.57;14.87;;;;;;;-141.97;100.00;46123.97;5089944;28;20167;-84
2024/01/08 02:34:12;;;;;;;30.13;15.13;;;;;;;-141.97;100.00;45966.44;5090062;28;20619;-85
2024/01/08 02:36:38;;;;;;;31.13;15.03;;;;;;;-141.97;100.00;46035.59;5089954;28;20172;-84
2024/01/08 02:39:03;;;;;;;27.73;14.53;;;;;;;-141.97;100.00;46177.75;5090040;28;20164;-84
2024/01/08 02:41:29;;;;;;;28.47;14.77;;;;;;;-141.97;100.00;46164.31;5101269;28;20239;-83
2024/01/08 02:43:54;;;;;;;28.27;14.43;;;;;;;-141.97;100.00;46001.00;5111477;28;20172;-85
2024/01/08 02:46:20;;;;;;;27.03;15.03;;;;;;;-141.97;100.00;46196.97;5109456;28;20208;-85
2024/01/08 02:48:45;;;;;;;28.43;14.20;;;;;;;-141.97;100.00;46185.44;5095532;28;20160;-85
2024/01/08 02:51:10;;;;;;;28.07;14.50;;;;;;;-141.97;100.00;46515.91;5094553;28;20685;-85
2024/01/08 02:53:36;;;;;;;31.27;14.80;;;;;;;-141.97;100.00;46143.19;5091783;28;20168;-86
2024/01/08 02:56:01;;;;;;;25.87;13.77;;;;;;;-141.97;100.00;46143.19;5091215;28;20160;-85
2024/01/08 02:58:27;;;;;;;27.07;14.10;;;;;;;-141.97;100.00;46118.19;5091927;28;20193;-84
2024/01/08 03:00:52;;;;;;;25.53;13.97;;;;;;;-141.97;100.00;46056.72;5092064;28;20168;-86
2024/01/08 03:03:18;;;;;;;25.17;13.53;;;;;;;-141.97;100.00;46037.50;5091387;28;20164;-85
2024/01/08 03:05:43;;;;;;;28.40;15.07;;;;;;;-141.97;100.00;46020.22;5089295;28;20192;-85
2024/01/08 03:08:08;;;;;;;53.47;29.07;;;;;;;-141.97;100.00;46045.19;5090744;28;20175;-86
2024/01/08 03:10:34;;;;;;;62.77;31.47;;;;;;;-141.97;100.00;46512.06;5089745;28;20176;-84
2024/01/08 03:12:59;;;;;;;55.30;30.43;;;;;;;-141.97;100.00;46200.81;5089446;28;20213;-84
2024/01/08 03:15:27;;;;;;;49.43;26.97;;;;;;;-141.97;100.00;45993.31;5090891;28;20225;-84
2024/01/08 03:17:53;;;;;;;40.40;21.73;;;;;;;-141.97;100.00;46546.66;5090129;28;20258;-85
2024/01/08 03:20:22;;;;;;;29.40;15.77;;;;;;;-141.97;100.00;45962.59;5094050;28;20244;-84
2024/01/08 03:22:48;;;;;;;21.90;12.07;;;;;;;-141.97;100.00;46112.44;5095790;28;20243;-84
2024/01/08 03:25:14;;;;;;;24.20;12.00;;;;;;;-141.97;100.00;46481.34;5095438;28;20182;-85
2024/01/08 03:27:39;;;;;;;19.33;10.87;;;;;;;-141.97;100.00;46200.81;5095900;28;20703;-84
2024/01/08 03:30:05;;;;;;;21.00;10.90;;;;;;;-141.97;100.00;46529.38;5094956;28;20247;-85
2024/01/08 03:32:30;;;;;;;21.60;10.00;;;;;;;-141.97;100.00;45987.56;5095150;28;20628;-84
2024/01/08 03:34:56;;;;;;;18.63;9.60;;;;;;;-141.97;100.00;46189.28;5095245;28;20244;-85
2024/01/08 03:37:21;;;;;;;15.73;8.90;;;;;;;-141.97;100.00;46168.16;5096095;28;20179;-85
2024/01/08 03:39:47;;;;;;;14.97;8.63;;;;;;;-141.97;100.00;46439.06;5094456;28;20651;-85
2024/01/08 03:42:12;;;;;;;15.03;8.00;;;;;;;-141.97;100.00;46354.53;5093574;28;20278;-85
2024/01/08 03:44:37;;;;;;;15.33;8.20;;;;;;;-141.97;100.00;46060.56;5093350;28;20250;-87
2024/01/08 03:47:03;;;;;;;13.77;7.50;;;;;;;-141.97;100.00;46196.97;5093136;28;20284;-87
2024/01/08 03:49:28;;;;;;;13.70;7.80;;;;;;;-141.97;100.00;46587.00;5093570;28;20196;-87
2024/01/08 03:51:54;;;;;;;12.17;7.40;;;;;;;-141.97;100.00;46152.78;5092794;28;20198;-87
2024/01/08 03:54:19;;;;;;;14.60;6.93;;;;;;;-141.97;100.00;46041.34;5094746;28;20302;-86
2024/01/08 03:56:44;;;;;;;12.00;6.93;;;;;;;-141.97;100.00;46035.59;5092696;28;20613;-84
2024/01/08 03:59:12;;;;;;;11.13;6.80;;;;;;;-141.97;100.00;46093.22;5094534;28;20164;-86
2024/01/08 04:01:45;;;;;;;10.47;6.10;;;;;;;-141.97;100.00;46285.34;5094476;28;20491;-86
2024/01/08 04:04:11;;;;;;;10.70;5.60;;;;;;;-141.97;100.00;46504.38;5094198;28;20550;-86
2024/01/08 04:06:37;;;;;;;11.47;5.83;;;;;;;-141.97;100.00;45962.59;5097723;28;20337;-85
2024/01/08 04:09:03;;;;;;;10.20;5.50;;;;;;;-141.97;100.00;46156.63;5092232;28;20511;-85
2024/01/08 04:11:29;;;;;;;7.40;4.40;;;;;;;-141.97;100.00;46456.34;5093611;28;20168;-86
2024/01/08 04:17:11;;;;;;;7.80;3.73;;;;;;;-141.97;100.00;46108.59;5011269;28;20210;-86
2024/01/08 04:19:37;;;;;;;6.07;3.10;;;;;;;-141.97;100.00;46419.84;4994565;28;20190;-86
2024/01/08 04:22:02;;;;;;;3.40;2.00;;;;;;;-141.97;100.00;45997.16;4994390;28;20202;-86
2024/01/08 04:24:28;;;;;;;2.90;2.17;;;;;;;-141.97;100.00;46156.63;5011086;28;20162;-86
2024/01/08 04:26:53;;;;;;;2.17;1.50;;;;;;;-141.97;100.00;46356.44;5011201;28;20238;-85
2024/01/08 04:29:19;;;;;;;2.47;1.30;;;;;;;-141.97;100.00;45979.88;4994339;28;20170;-85
2024/01/08 04:31:44;;;;;;;2.43;1.23;;;;;;;-141.97;100.00;46629.28;5010366;28;20695;-85
2024/01/08 04:34:10;;;;;;;1.77;1.10;;;;;;;-141.97;100.00;45878.06;4994500;28;20197;-85
2024/01/08 04:36:45;;;;;;;2.60;1.10;;;;;;;-141.97;100.00;46024.06;5011017;28;20257;-86
2024/01/08 04:39:11;;;;;;;1.90;1.00;;;;;;;-141.97;100.00;46022.13;5010557;28;20185;-86
2024/01/08 04:41:39;;;;;;;4.07;0.77;;;;;;;-141.97;100.00;46619.69;5010802;28;20670;-85
2024/01/08 04:44:09;;;;;;;0.97;0.70;;;;;;;-141.97;100.00;45924.16;5010393;28;20198;-85
2024/01/08 04:46:37;;;;;;;0.90;0.60;;;;;;;-141.97;100.00;45897.25;4994044;28;20229;-85
2024/01/08 04:49:05;;;;;;;0.60;0.50;;;;;;;-141.97;100.00;45866.53;4994115;28;20261;-85
2024/01/08 04:51:34;;;;;;;1.13;0.60;;;;;;;-141.97;100.00;46437.13;5010321;28;20775;-85
2024/01/08 04:54:04;;;;;;;1.60;0.63;;;;;;;-141.97;100.00;45904.94;5054508;28;20268;-85
2024/01/08 04:56:29;;;;;;;1.57;0.67;;;;;;;-141.97;100.00;45931.84;5092769;28;20167;-86
2024/01/08 04:58:57;;;;;;;1.23;0.70;;;;;;;-141.97;100.00;46022.13;5090947;28;20172;-85
2024/01/08 05:01:23;;;;;;;0.83;0.70;;;;;;;-141.97;100.00;46198.91;5091146;28;20172;-85
2024/01/08 05:03:48;;;;;;;1.60;0.83;;;;;;;-141.97;100.00;46120.13;5092173;28;20160;-86
2024/01/08 05:06:14;;;;;;;6.20;2.50;;;;;;;-141.97;100.00;45966.44;5091473;28;20576;-86
2024/01/08 05:08:40;;;;;;;2.10;1.40;;;;;;;-141.97;100.00;46102.81;5092773;28;20263;-86
2024/01/08 05:11:06;;;;;;;1.10;1.00;;;;;;;-141.97;100.00;46016.38;5092562;28;20553;-85
2024/01/08 05:13:32;;;;;;;2.50;1.27;;;;;;;-141.97;100.00;46375.66;5092456;28;20171;-86
2024/01/08 05:15:57;;;;;;;1.20;0.83;;;;;;;-141.97;100.00;46160.47;5092710;28;20164;-86
2024/01/08 05:18:23;;;;;;;4.80;1.50;;;;;;;-141.97;100.00;46642.75;5090941;28;20212;-86
2024/01/08 05:20:48;;;;;;;3.80;2.53;;;;;;;-141.97;100.00;45954.91;5091502;28;20648;-86
2024/01/08 05:23:13;;;;;;;4.90;2.10;;;;;;;-141.97;100.00;46446.75;5092637;28;20274;-86
2024/01/08 05:25:39;;;;;;;4.43;1.90;;;;;;;-141.97;100.00;46204.66;5092249;28;20171;-85
2024/01/08 05:28:05;;;;;;;2.33;1.00;;;;;;;-141.97;100.00;46223.88;5090706;28;20225;-86
2024/01/08 05:30:31;;;;;;;2.60;1.50;;;;;;;-141.97;100.00;46189.28;5090487;28;20172;-85
2024/01/08 05:32:57;;;;;;;2.63;1.60;;;;;;;-141.97;100.00;46281.50;5092582;28;20164;-86
2024/01/08 05:35:22;;;;;;;7.50;3.90;;;;;;;-141.97;100.00;46072.09;5092084;28;20160;-85
2024/01/08 05:37:47;;;;;;;3.87;2.10;;;;;;;-141.97;100.00;46185.44;5092149;28;20164;-87
2024/01/08 05:40:13;;;;;;;2.47;1.57;;;;;;;-141.97;100.00;46444.81;5090734;28;20229;-85
2024/01/08 05:42:40;;;;;;;4.40;2.20;;;;;;;-141.97;100.00;45922.25;5090682;28;20214;-86
2024/01/08 05:45:07;;;;;;;4.60;2.00;;;;;;;-141.97;100.00;46175.84;5087406;28;20216;-87
2024/01/08 05:47:34;;;;;;;8.00;2.93;;;;;;;-141.97;100.00;46099.00;5092528;28;20196;-87
2024/01/08 05:50:04;;;;;;;4.43;1.90;;;;;;;-141.97;100.00;46179.69;5091957;28;20208;-87
2024/01/08 05:52:29;;;;;;;2.80;1.77;;;;;;;-141.97;100.00;46204.66;5092233;28;20176;-86
2024/01/08 05:54:55;;;;;;;4.10;1.70;;;;;;;-141.97;100.00;46195.06;5091869;28;20160;-88
2024/01/08 05:57:21;;;;;;;3.60;1.80;;;;;;;-141.97;100.00;46602.38;5099036;28;20156;-86
2024/01/08 05:59:46;;;;;;;2.20;1.30;;;;;;;-141.97;100.00;45964.50;5092087;28;20183;-86
2024/01/08 06:02:12;;;;;;;1.73;1.23;;;;;;;-141.97;100.00;46018.28;5090048;28;20172;-87
2024/01/08 06:04:38;;;;;;;3.57;1.60;;;;;;;-141.97;100.00;46669.63;5093708;28;20163;-87
2024/01/08 06:07:04;;;;;;;3.70;1.90;;;;;;;-141.97;100.00;46108.59;5091510;28;20188;-87
2024/01/08 06:09:30;;;;;;;3.70;2.00;;;;;;;-141.97;100.00;46627.38;5091720;28;20665;-87
2024/01/08 06:11:56;;;;;;;4.10;2.60;;;;;;;-141.97;100.00;46612.00;5090370;28;20221;-87
2024/01/08 06:14:21;;;;;;;5.20;3.30;;;;;;;-141.97;100.00;46258.44;5091349;28;20168;-87
2024/01/08 06:16:47;;;;;;;4.33;2.87;;;;;;;-141.97;100.00;46216.19;5091156;28;20243;-87
2024/01/08 06:19:12;;;;;;;4.43;2.00;;;;;;;-141.97;100.00;46535.13;5091969;28;20160;-87
2024/01/08 06:21:38;;;;;;;3.27;2.17;;;;;;;-141.97;100.00;46206.56;5091529;28;20164;-88
2024/01/08 06:24:03;;;;;;;4.33;2.70;;;;;;;-141.97;100.00;46050.97;5091714;28;20244;-86
2024/01/08 06:26:30;;;;;;;4.07;2.67;;;;;;;-141.97;100.00;46173.91;5098775;28;20265;-84
2024/01/08 06:28:56;;;;;;;4.30;2.90;;;;;;;-141.97;100.00;46658.13;5102781;28;20163;-85
2024/01/08 06:31:21;;;;;;;4.77;1.80;;;;;;;-141.97;100.00;46346.84;5091816;28;20591;-88
2024/01/08 06:33:46;;;;;;;3.50;1.67;;;;;;;-141.97;100.00;46617.75;5091444;28;20481;-87
2024/01/08 06:36:12;;;;;;;5.20;1.57;;;;;;;-141.97;100.00;46231.56;5091077;28;20595;-88
2024/01/08 06:38:37;;;;;;;3.77;2.00;;;;;;;-141.97;100.00;46089.38;5090201;28;20160;-87
2024/01/08 06:41:03;;;;;;;5.10;2.90;;;;;;;-141.97;100.00;46133.56;5091254;28;20168;-87
2024/01/08 06:43:28;;;;;;;5.03;2.87;;;;;;;-141.97;100.00;46054.81;5093278;28;20199;-87
2024/01/08 06:45:54;;;;;;;14.10;7.43;;;;;;;-141.97;100.00;46239.25;5111171;28;20231;-88
2024/01/08 06:48:20;;;;;;;8.43;5.33;;;;;;;-141.97;100.00;46185.44;5108975;28;20206;-88
2024/01/08 06:50:45;;;;;;;9.17;4.63;;;;;;;-141.97;100.00;46029.81;5093707;28;20210;-86
2024/01/08 06:53:11;;;;;;;5.17;3.27;;;;;;;-141.97;100.00;46550.50;5091550;28;20175;-89
2024/01/08 06:55:39;;;;;;;7.63;4.77;;;;;;;-141.97;100.00;46239.25;5083203;28;20281;-86
2024/01/08 06:58:04;;;;;;;7.63;4.40;;;;;;;-141.97;100.00;46644.66;5087834;28;20214;-85
2024/01/08 07:00:30;;;;;;;7.57;4.03;;;;;;;-141.97;100.00;46239.25;5090390;28;20172;-86
2024/01/08 07:02:55;;;;;;;9.63;4.77;;;;;;;-141.97;100.00;46120.13;5092184;28;20175;-87
2024/01/08 07:05:21;;;;;;;9.10;4.70;;;;;;;-141.97;100.00;46131.66;5090472;28;20183;-87
2024/01/08 07:07:46;;;;;;;9.73;5.07;;;;;;;-141.97;100.00;46312.25;5091973;28;20199;-89
2024/01/08 07:10:12;;;;;;;28.07;11.53;;;;;;;-141.97;100.00;46056.72;5092598;28;20156;-90
2024/01/08 07:12:38;;;;;;;41.60;20.83;;;;;;;-141.97;100.00;46612.00;5099405;28;20164;-89
2024/01/08 07:15:04;;;;;;;21.47;11.17;;;;;;;-141.97;100.00;46523.59;5096970;28;20152;-89
2024/01/08 07:17:30;;;;;;;10.87;5.43;;;;;;;-141.97;100.00;46220.03;5093770;28;20168;-89
2024/01/08 07:19:55;;;;;;;7.20;4.17;;;;;;;-141.97;100.00;46667.72;5096689;28;20187;-89
2024/01/08 07:22:21;;;;;;;7.93;3.90;;;;;;;-141.97;100.00;46600.47;5104874;28;20168;-90
2024/01/08 07:24:47;;;;;;;8.07;4.37;;;;;;;-141.97;100.00;45972.19;5102790;28;20195;-91
2024/01/08 07:27:12;;;;;;;9.43;5.00;;;;;;;-141.97;100.00;46444.81;5096254;28;20196;-90
2024/01/08 07:29:37;;;;;;;10.40;6.20;;;;;;;-141.97;100.00;45976.03;5098116;28;20223;-90
2024/01/08 07:32:03;;;;;;;12.40;5.63;;;;;;;-141.97;100.00;46475.56;5096603;28;20165;-90
2024/01/08 07:34:29;;;;;;;10.37;6.90;;;;;;;-141.97;100.00;46025.97;5104737;28;20225;-89
2024/01/08 07:36:55;;;;;;;24.23;13.97;;;;;;;-141.97;100.00;46081.69;5101636;28;20222;-88
2024/01/08 07:39:21;;;;;;;37.03;21.07;;;;;;;-141.97;100.00;46160.47;5099625;28;20169;-90
2024/01/08 07:41:47;;;;;;;31.73;19.37;;;;;;;-141.97;100.00;46198.91;5097211;28;20201;-91
2024/01/08 07:44:13;;;;;;;37.43;22.23;;;;;;;-141.97;100.00;46227.72;5102515;28;20152;-89
2024/01/08 07:46:39;;;;;;;38.43;21.70;;;;;;;-141.97;100.00;46031.75;5102000;28;20260;-89
2024/01/08 07:49:04;;;;;;;63.80;33.37;;;;;;;-141.97;100.00;45945.28;5110958;28;20161;-86
2024/01/08 07:51:30;;;;;;;26.83;14.60;;;;;;;-141.97;100.00;46483.25;5111725;28;20292;-86
2024/01/08 07:53:56;;;;;;;21.23;12.20;;;;;;;-141.97;100.00;46066.31;5106277;28;20164;-86
2024/01/08 07:56:24;;;;;;;26.07;11.77;;;;;;;-141.97;100.00;46037.50;5095170;28;20282;-86
2024/01/08 07:58:50;;;;;;;21.00;10.73;;;;;;;-141.97;100.00;45931.84;5097514;28;20266;-88
2024/01/08 08:01:15;;;;;;;27.00;15.00;;;;;;;-141.97;100.00;45979.88;5095819;28;20160;-88
2024/01/08 08:03:41;;;;;;;20.47;10.23;;;;;;;-141.97;100.00;46275.75;5092831;28;20592;-87
2024/01/08 08:06:06;;;;;;;16.57;10.43;;;;;;;-141.97;100.00;46035.59;5099102;28;20199;-87
2024/01/08 08:08:34;;;;;;;15.33;8.47;;;;;;;-141.97;100.00;46027.91;5098793;28;20249;-87
2024/01/08 08:11:01;;;;;;;8.60;5.33;;;;;;;-141.97;100.00;45933.75;5099220;28;20156;-87
2024/01/08 08:13:27;;;;;;;9.13;5.57;;;;;;;-141.97;100.00;46448.66;5103916;28;20171;-88
2024/01/08 08:15:53;;;;;;;15.50;8.17;;;;;;;-141.97;100.00;46573.56;5095952;28;20160;-87
2024/01/08 08:18:19;;;;;;;18.10;10.83;;;;;;;-141.97;100.00;46081.69;5095710;28;20164;-87
2024/01/08 08:20:44;;;;;;;17.70;10.77;;;;;;;-141.97;100.00;46010.63;5095572;28;20191;-86
2024/01/08 08:23:12;;;;;;;13.30;7.83;;;;;;;-141.97;100.00;46108.59;5100370;28;20164;-87
2024/01/08 08:25:37;;;;;;;42.63;19.30;;;;;;;-141.97;100.00;46256.53;5096278;28;20207;-89
2024/01/08 08:28:03;;;;;;;7.90;4.10;;;;;;;-141.97;100.00;46031.75;5092648;28;20198;-87
2024/01/08 08:30:29;;;;;;;6.90;3.57;;;;;;;-141.97;100.00;46254.59;5094946;28;20161;-87
2024/01/08 08:32:58;;;;;;;8.43;5.10;;;;;;;-141.97;100.00;46158.53;5095418;28;20754;-89
2024/01/08 08:35:27;;;;;;;9.17;5.03;;;;;;;-141.97;100.00;46642.75;5092199;28;20172;-85
2024/01/08 08:37:53;;;;;;;30.13;17.30;;;;;;;-141.97;100.00;45979.88;5093537;28;20168;-87
2024/01/08 08:40:18;;;;;;;13.10;6.63;;;;;;;-141.97;100.00;46475.56;5093660;28;20171;-86
2024/01/08 08:42:44;;;;;;;8.00;4.70;;;;;;;-141.97;100.00;46431.38;5097286;28;20168;-85
2024/01/08 08:45:09;;;;;;;14.40;9.33;;;;;;;-141.97;100.00;46258.44;5097800;28;20329;-86
2024/01/08 08:47:35;;;;;;;13.73;7.93;;;;;;;-141.97;100.00;46246.94;5095039;28;20195;-86
2024/01/08 08:50:00;;;;;;;37.37;17.73;;;;;;;-141.97;100.00;46237.31;5096526;28;20489;-87
2024/01/08 08:52:26;;;;;;;15.80;6.43;;;;;;;-141.97;100.00;46172.00;5096728;28;20172;-86
2024/01/08 08:54:52;;;;;;;11.50;7.23;;;;;;;-141.97;100.00;46673.47;5095867;28;20239;-86
2024/01/08 08:57:17;;;;;;;8.50;5.37;;;;;;;-141.97;100.00;46064.41;5097542;28;20167;-86
2024/01/08 08:59:42;;;;;;;8.10;4.57;;;;;;;-141.97;100.00;46487.09;5097176;28;20187;-86
2024/01/08 09:02:08;;;;;;;6.90;3.77;;;;;;;-141.97;100.00;46612.00;5097780;28;20186;-87
2024/01/08 09:04:34;;;;;;;5.47;2.90;;;;;;;-141.97;100.00;46212.34;5103795;28;20167;-87
2024/01/08 09:06:59;;;;;;;7.07;3.40;;;;;;;-141.97;100.00;46245.00;5098356;28;20211;-87
2024/01/08 09:09:24;;;;;;;27.17;14.93;;;;;;;-141.97;100.00;46588.94;5092513;28;20168;-87
2024/01/08 09:11:50;;;;;;;71.37;32.43;;;;;;;-141.97;100.00;46250.78;5092040;28;20612;-87
2024/01/08 09:14:15;;;;;;;57.20;26.83;;;;;;;-141.97;100.00;46381.41;5092946;28;20632;-87
2024/01/08 09:16:41;;;;;;;27.97;13.13;;;;;;;-141.97;100.00;46120.13;5093790;28;20160;-87
2024/01/08 09:19:06;;;;;;;29.63;14.27;;;;;;;-141.97;100.00;46116.28;5092598;28;20734;-87
2024/01/08 09:21:32;;;;;;;14.77;8.83;;;;;;;-141.97;100.00;45928.00;5094224;28;20292;-86
2024/01/08 09:23:57;;;;;;;11.10;5.63;;;;;;;-141.97;100.00;46139.34;5094060;28;20172;-86
2024/01/08 09:26:23;;;;;;;9.07;6.13;;;;;;;-141.97;100.00;46108.59;5093369;28;20184;-86
2024/01/08 09:28:49;;;;;;;5.33;3.77;;;;;;;-141.97;100.00;46104.75;5092963;28;20175;-87
2024/01/08 09:31:14;;;;;;;7.57;3.77;;;;;;;-141.97;100.00;46035.59;5094421;28;20168;-87
2024/01/08 09:33:40;;;;;;;10.03;5.50;;;;;;;-141.97;100.00;46114.34;5096116;28;20503;-88
2024/01/08 09:36:05;;;;;;;13.77;8.00;;;;;;;-141.97;100.00;46039.44;5094150;28;20156;-87
2024/01/08 09:38:31;;;;;;;12.50;7.97;;;;;;;-141.97;100.00;46612.00;5095137;28;20172;-87
2024/01/08 09:40:56;;;;;;;12.00;6.90;;;;;;;-141.97;100.00;46087.47;5096381;28;20231;-88
2024/01/08 09:43:22;;;;;;;11.43;8.17;;;;;;;-141.97;100.00;46229.63;5095483;28;20164;-86
2024/01/08 09:46:04;;;;;;;12.73;8.13;;;;;;;-141.97;100.00;46243.09;5095490;28;20243;-87
2024/01/08 09:48:31;;;;;;;15.80;8.53;;;;;;;-141.97;100.00;46210.41;5095873;28;20302;-88
2024/01/08 09:50:59;;;;;;;10.80;6.23;;;;;;;-141.97;100.00;46181.59;5094661;28;20164;-86
2024/01/08 09:53:27;;;;;;;14.03;8.13;;;;;;;-141.97;100.00;46208.50;5093956;28;20528;-86
2024/01/08 09:55:53;;;;;;;13.03;8.00;;;;;;;-141.97;100.00;46123.97;5094697;28;20160;-88
2024/01/08 09:58:19;;;;;;;10.13;6.10;;;;;;;-141.97;100.00;46189.28;5096006;28;20526;-86
2024/01/08 10:00:44;;;;;;;6.90;4.77;;;;;;;-141.97;100.00;46208.50;5104055;28;20183;-85
2024/01/08 10:03:09;;;;;;;8.87;6.00;;;;;;;-141.97;100.00;46047.13;5109844;28;20168;-86
2024/01/08 10:05:35;;;;;;;8.73;5.20;;;;;;;-141.97;100.00;46077.84;5095415;28;20164;-87
2024/01/08 10:08:01;;;;;;;9.83;5.50;;;;;;;-141.97;100.00;45954.91;5095128;28;20184;-88
2024/01/08 10:10:29;;;;;;;9.47;5.50;;;;;;;-141.97;100.00;46202.72;5096293;28;20179;-87
2024/01/08 10:12:54;;;;;;;9.07;5.80;;;;;;;-141.97;100.00;46081.69;5092730;28;20159;-88
2024/01/08 10:15:20;;;;;;;39.13;17.37;;;;;;;-141.97;100.00;46220.03;5092046;28;20567;-87
2024/01/08 10:17:49;;;;;;;18.40;10.23;;;;;;;-141.97;100.00;46191.22;5091008;28;20163;-87
2024/01/08 10:20:15;;;;;;;11.03;7.00;;;;;;;-141.97;100.00;46196.97;5090274;28;20168;-87
2024/01/08 10:22:42;;;;;;;7.43;5.40;;;;;;;-141.97;100.00;46022.13;5092056;28;20179;-87
2024/01/08 10:25:08;;;;;;;18.57;10.17;;;;;;;-141.97;100.00;46196.97;5091954;28;20183;-86
2024/01/08 10:27:33;;;;;;;22.07;11.80;;;;;;;-141.97;100.00;46189.28;5090298;28;20188;-87
2024/01/08 10:29:58;;;;;;;14.57;8.70;;;;;;;-141.97;100.00;46371.81;5091762;28;20194;-88
2024/01/08 10:32:24;;;;;;;14.20;7.37;;;;;;;-141.97;100.00;46062.47;5090890;28;20175;-86
2024/01/08 10:34:50;;;;;;;9.40;6.03;;;;;;;-141.97;100.00;46394.88;5091900;28;20172;-86
2024/01/08 10:37:15;;;;;;;10.83;7.03;;;;;;;-141.97;100.00;46143.19;5089688;28;20164;-86
2024/01/08 10:39:42;;;;;;;20.73;15.00;;;;;;;-141.97;100.00;46039.44;5090759;28;20168;-87
2024/01/08 10:42:08;;;;;;;14.17;8.23;;;;;;;-141.97;100.00;46456.34;5091743;28;20160;-86
2024/01/08 10:44:34;;;;;;;10.23;6.23;;;;;;;-141.97;100.00;46127.81;5090292;28;20247;-86
2024/01/08 10:47:06;;;;;;;7.53;4.20;;;;;;;-141.97;100.00;46233.47;5089896;28;20227;-87
2024/01/08 10:49:36;;;;;;;9.97;6.00;;;;;;;-141.97;100.00;46483.25;5089672;28;20666;-87
2024/01/08 10:52:09;;;;;;;7.60;4.90;;;;;;;-141.97;100.00;46166.22;5091518;28;20255;-88
2024/01/08 10:54:39;;;;;;;6.10;4.17;;;;;;;-141.97;100.00;46110.50;5091476;28;20156;-87
2024/01/08 10:57:12;;;;;;;14.77;7.47;;;;;;;-141.97;100.00;46160.47;5092955;28;20164;-86
2024/01/08 10:59:39;;;;;;;11.53;5.53;;;;;;;-141.97;100.00;46435.22;5091416;28;20199;-86